createdAt,value
2023-09-08T00:00:59.708Z,7.74
2023-09-08T00:03:27.543Z,7.75
2023-09-08T00:05:55.312Z,7.76
2023-09-08T00:08:23.277Z,7.76
2023-09-08T00:10:51.412Z,7.75
2023-09-08T00:13:19.137Z,7.73
2023-09-08T00:15:47.121Z,7.71
2023-09-08T00:18:14.746Z,7.72
2023-09-08T00:20:43.360Z,7.73
2023-09-08T00:23:11.089Z,7.74
2023-09-08T00:25:38.776Z,7.74
2023-09-08T00:28:07.950Z,7.73
2023-09-08T00:30:35.915Z,7.73
2023-09-08T00:33:03.671Z,7.73
2023-09-08T00:35:31.495Z,7.74
2023-09-08T00:37:59.317Z,7.74
2023-09-08T00:40:30.963Z,7.73
2023-09-08T00:42:58.934Z,7.71
2023-09-08T00:45:28.746Z,7.68
2023-09-08T00:47:56.753Z,7.65
2023-09-08T00:50:25.246Z,7.63
2023-09-08T00:52:52.954Z,7.61
2023-09-08T00:55:21.125Z,7.60
2023-09-08T00:57:49.198Z,7.60
2023-09-08T01:00:18.111Z,7.58
2023-09-08T01:02:46.511Z,7.56
2023-09-08T01:05:15.767Z,7.57
2023-09-08T01:07:43.639Z,7.59
2023-09-08T01:10:11.503Z,7.59
2023-09-08T01:12:39.071Z,7.58
2023-09-08T01:15:07.576Z,7.56
2023-09-08T01:17:35.623Z,7.56
2023-09-08T01:20:07.040Z,7.55
2023-09-08T01:22:40.865Z,7.53
2023-09-08T01:25:25.118Z,7.49
2023-09-08T01:27:54.526Z,7.44
2023-09-08T01:30:23.606Z,7.40
2023-09-08T01:32:52.362Z,7.38
2023-09-08T01:35:20.268Z,7.38
2023-09-08T01:37:49.465Z,7.38
2023-09-08T01:40:17.632Z,7.39
2023-09-08T01:42:46.013Z,7.39
2023-09-08T01:45:14.286Z,7.38
2023-09-08T01:47:43.004Z,7.37
2023-09-08T01:50:11.358Z,7.34
2023-09-08T01:52:38.948Z,7.33
2023-09-08T01:55:09.004Z,7.31
2023-09-08T01:57:37.210Z,7.29
2023-09-08T02:00:06.706Z,7.27
2023-09-08T02:02:40.783Z,7.26
2023-09-08T02:05:10.165Z,7.25
2023-09-08T02:07:38.032Z,7.24
2023-09-08T02:10:06.608Z,7.22
2023-09-08T02:12:34.227Z,7.19
2023-09-08T02:15:02.428Z,7.18
2023-09-08T02:17:30.167Z,7.16
2023-09-08T02:19:57.926Z,7.13
2023-09-08T02:22:25.723Z,7.14
2023-09-08T02:24:53.456Z,7.20
2023-09-08T02:27:21.935Z,7.23
2023-09-08T02:29:49.900Z,7.25
2023-09-08T02:32:17.774Z,7.26
2023-09-08T02:34:46.795Z,7.32
2023-09-08T02:37:15.443Z,7.37
2023-09-08T02:39:43.137Z,7.37
2023-09-08T02:42:11.610Z,7.36
2023-09-08T02:44:39.558Z,7.33
2023-09-08T02:47:07.935Z,7.29
2023-09-08T02:49:36.817Z,7.25
2023-09-08T02:52:05.509Z,7.21
2023-09-08T02:54:33.194Z,7.17
2023-09-08T02:57:01.033Z,7.14
2023-09-08T02:59:28.593Z,7.12
2023-09-08T03:01:56.358Z,7.09
2023-09-08T03:04:24.944Z,7.06
2023-09-08T03:06:52.812Z,7.03
2023-09-08T03:09:21.082Z,7.01
2023-09-08T03:11:48.710Z,7.00
2023-09-08T03:14:16.417Z,6.97
2023-09-08T03:16:44.122Z,6.96
2023-09-08T03:19:12.353Z,6.94
2023-09-08T03:21:40.004Z,6.93
2023-09-08T03:24:07.872Z,6.90
2023-09-08T03:26:35.488Z,6.90
2023-09-08T03:29:03.293Z,6.96
2023-09-08T03:31:33.073Z,7.00
2023-09-08T03:34:01.119Z,7.01
2023-09-08T03:36:28.976Z,7.03
2023-09-08T03:38:59.367Z,7.04
2023-09-08T03:41:27.746Z,7.05
2023-09-08T03:43:55.359Z,7.07
2023-09-08T03:46:23.128Z,7.10
2023-09-08T03:48:51.032Z,7.14
2023-09-08T03:51:18.899Z,7.19
2023-09-08T03:53:47.385Z,7.24
2023-09-08T03:56:15.096Z,7.30
2023-09-08T03:58:43.005Z,7.37
2023-09-08T04:01:10.686Z,7.44
2023-09-08T04:03:38.967Z,7.53
2023-09-08T04:06:07.428Z,7.65
2023-09-08T04:08:34.978Z,7.78
2023-09-08T04:11:03.254Z,7.91
2023-09-08T04:13:30.915Z,8.05
2023-09-08T04:15:58.703Z,8.20
2023-09-08T04:18:26.489Z,8.35
2023-09-08T04:20:54.336Z,8.52
2023-09-08T04:23:22.586Z,8.69
2023-09-08T04:25:50.762Z,8.89
2023-09-08T04:28:18.426Z,9.11
2023-09-08T04:30:46.349Z,9.35
2023-09-08T04:33:14.238Z,9.58
2023-09-08T04:35:42.739Z,9.78
2023-09-08T04:38:10.356Z,9.95
2023-09-08T04:40:41.421Z,10.12
2023-09-08T04:43:09.204Z,10.30
2023-09-08T04:45:37.605Z,10.51
2023-09-08T04:48:06.370Z,10.68
2023-09-08T04:50:36.381Z,10.78
2023-09-08T04:53:04.156Z,10.86
2023-09-08T04:55:32.531Z,10.89
2023-09-08T04:58:00.086Z,10.93
2023-09-08T05:00:28.463Z,10.98
2023-09-08T05:02:57.357Z,11.04
2023-09-08T05:05:25.752Z,11.09
2023-09-08T05:07:57.472Z,11.12
2023-09-08T05:10:26.686Z,11.12
2023-09-08T05:12:54.663Z,11.13
2023-09-08T05:15:23.053Z,11.12
2023-09-08T05:17:54.030Z,11.11
2023-09-08T05:20:23.486Z,11.11
2023-09-08T05:22:51.148Z,11.14
2023-09-08T05:25:19.854Z,11.16
2023-09-08T05:27:48.196Z,11.17
2023-09-08T05:30:16.574Z,11.20
2023-09-08T05:32:44.369Z,11.24
2023-09-08T05:35:13.225Z,11.31
2023-09-08T05:37:41.097Z,11.38
2023-09-08T05:40:10.183Z,11.47
2023-09-08T05:42:37.950Z,11.56
2023-09-08T05:45:06.534Z,11.64
2023-09-08T05:47:34.725Z,11.73
2023-09-08T05:50:03.389Z,11.82
2023-09-08T05:52:31.611Z,11.91
2023-09-08T05:55:01.215Z,12.01
2023-09-08T05:57:31.911Z,12.09
2023-09-08T05:59:59.596Z,12.19
2023-09-08T06:02:27.608Z,12.29
2023-09-08T06:04:57.142Z,12.40
2023-09-08T06:07:25.208Z,12.52
2023-09-08T06:09:52.926Z,12.63
2023-09-08T06:12:20.754Z,12.72
2023-09-08T06:14:49.613Z,12.80
2023-09-08T06:17:17.392Z,12.91
2023-09-08T06:19:45.060Z,13.04
2023-09-08T06:22:13.231Z,13.18
2023-09-08T06:24:41.726Z,13.31
2023-09-08T06:27:09.593Z,13.41
2023-09-08T06:29:37.338Z,13.55
2023-09-08T06:32:05.611Z,13.67
2023-09-08T06:34:33.339Z,13.80
2023-09-08T06:37:01.043Z,13.93
2023-09-08T06:39:28.943Z,14.04
2023-09-08T06:41:56.768Z,14.13
2023-09-08T06:44:24.838Z,14.26
2023-09-08T06:46:52.608Z,14.44
2023-09-08T06:49:20.577Z,14.58
2023-09-08T06:51:49.872Z,14.71
2023-09-08T06:54:17.645Z,14.86
2023-09-08T06:56:45.604Z,15.00
2023-09-08T06:59:13.470Z,15.11
2023-09-08T07:01:41.418Z,15.22
2023-09-08T07:04:09.850Z,15.36
2023-09-08T07:06:39.841Z,15.52
2023-09-08T07:09:07.799Z,15.67
2023-09-08T07:11:36.330Z,15.78
2023-09-08T07:14:04.043Z,15.91
2023-09-08T07:17:20.130Z,16.15
2023-09-08T07:19:47.905Z,16.32
2023-09-08T07:22:15.872Z,16.49
2023-09-08T07:24:43.841Z,16.68
2023-09-08T07:27:14.054Z,16.88
2023-09-08T07:29:42.650Z,17.06
2023-09-08T07:32:10.367Z,17.24
2023-09-08T07:34:38.276Z,17.34
2023-09-08T07:37:05.934Z,17.41
2023-09-08T07:39:34.213Z,17.51
2023-09-08T07:42:02.085Z,17.64
2023-09-08T07:44:30.365Z,17.79
2023-09-08T07:46:58.218Z,17.96
2023-09-08T07:49:25.921Z,18.20
2023-09-08T07:51:53.580Z,18.36
2023-09-08T07:54:21.200Z,18.48
2023-09-08T07:56:48.919Z,18.61
2023-09-08T07:59:16.658Z,18.76
2023-09-08T08:01:44.337Z,18.87
2023-09-08T08:04:12.100Z,19.00
2023-09-08T08:06:40.033Z,19.06
2023-09-08T08:09:07.925Z,19.18
2023-09-08T08:11:36.201Z,19.32
2023-09-08T08:14:03.925Z,19.45
2023-09-08T08:16:31.684Z,19.61
2023-09-08T08:19:00.554Z,19.70
2023-09-08T08:21:28.492Z,19.75
2023-09-08T08:23:56.310Z,19.87
2023-09-08T08:26:28.996Z,19.98
2023-09-08T08:28:56.652Z,20.02
2023-09-08T08:31:25.732Z,20.15
2023-09-08T08:33:53.515Z,20.16
2023-09-08T08:36:21.414Z,20.10
2023-09-08T08:38:49.753Z,20.09
2023-09-08T08:41:17.328Z,20.18
2023-09-08T08:43:46.305Z,20.28
2023-09-08T08:46:14.001Z,20.52
2023-09-08T08:48:41.734Z,20.64
2023-09-08T08:51:09.832Z,20.73
2023-09-08T08:53:37.570Z,20.83
2023-09-08T08:56:07.560Z,21.02
2023-09-08T08:58:35.609Z,21.14
2023-09-08T09:01:03.562Z,21.18
2023-09-08T09:03:31.346Z,21.28
2023-09-08T09:06:00.472Z,21.29
2023-09-08T09:08:28.444Z,21.14
2023-09-08T09:10:56.210Z,21.15
2023-09-08T09:13:24.100Z,21.24
2023-09-08T09:15:51.871Z,21.42
2023-09-08T09:18:19.580Z,21.55
2023-09-08T09:20:55.453Z,21.54
2023-09-08T09:23:32.946Z,21.69
2023-09-08T09:26:02.605Z,21.98
2023-09-08T09:28:30.562Z,22.15
2023-09-08T09:30:59.817Z,22.15
2023-09-08T09:33:27.502Z,22.15
2023-09-08T09:35:55.654Z,22.12
2023-09-08T09:38:23.364Z,22.13
2023-09-08T09:40:51.082Z,22.25
2023-09-08T09:43:21.989Z,22.33
2023-09-08T09:45:49.792Z,22.14
2023-09-08T09:48:18.376Z,21.94
2023-09-08T09:50:46.025Z,21.85
2023-09-08T09:53:14.952Z,21.96
2023-09-08T09:55:44.124Z,22.08
2023-09-08T09:58:12.208Z,22.18
2023-09-08T10:00:42.603Z,22.01
2023-09-08T10:03:10.769Z,21.98
2023-09-08T10:05:38.754Z,22.06
2023-09-08T10:08:07.175Z,22.09
2023-09-08T10:10:38.281Z,22.08
2023-09-08T10:13:07.774Z,22.17
2023-09-08T10:15:35.647Z,22.45
2023-09-08T10:18:06.114Z,22.67
2023-09-08T10:20:34.595Z,22.77
2023-09-08T10:23:12.139Z,22.73
2023-09-08T10:25:44.728Z,22.69
2023-09-08T10:28:14.523Z,22.85
2023-09-08T10:30:43.047Z,22.92
2023-09-08T10:33:10.967Z,22.97
2023-09-08T10:35:40.174Z,23.14
2023-09-08T10:38:27.889Z,23.06
2023-09-08T10:41:18.538Z,22.97
2023-09-08T10:44:02.526Z,22.85
2023-09-08T10:46:31.962Z,22.91
2023-09-08T10:49:05.086Z,22.99
2023-09-08T10:51:32.907Z,22.89
2023-09-08T10:54:00.577Z,22.91
2023-09-08T10:56:30.614Z,22.95
2023-09-08T10:59:00.522Z,22.87
2023-09-08T11:01:29.048Z,22.76
2023-09-08T11:03:57.304Z,22.70
2023-09-08T11:06:25.218Z,22.72
2023-09-08T11:08:54.621Z,22.63
2023-09-08T11:11:22.393Z,22.53
2023-09-08T11:13:50.262Z,22.40
2023-09-08T11:16:22.866Z,22.33
2023-09-08T11:18:52.430Z,22.29
2023-09-08T11:21:20.711Z,22.27
2023-09-08T11:23:48.430Z,22.21
2023-09-08T11:26:16.665Z,22.17
2023-09-08T11:28:44.445Z,22.09
2023-09-08T11:31:13.688Z,21.88
2023-09-08T11:33:41.632Z,21.87
2023-09-08T11:36:16.793Z,21.92
2023-09-08T11:38:45.702Z,22.00
2023-09-08T11:41:13.988Z,22.01
2023-09-08T11:43:41.840Z,21.87
2023-09-08T11:46:12.025Z,21.64
2023-09-08T11:48:40.034Z,21.53
2023-09-08T11:51:09.331Z,21.56
2023-09-08T11:53:36.895Z,21.50
2023-09-08T11:56:04.754Z,21.40
2023-09-08T11:58:32.481Z,21.37
2023-09-08T12:01:00.212Z,21.42
2023-09-08T12:03:27.999Z,21.49
2023-09-08T12:05:56.422Z,21.68
2023-09-08T12:08:26.541Z,21.73
2023-09-08T12:10:54.921Z,21.73
2023-09-08T12:13:23.909Z,21.78
2023-09-08T12:15:52.349Z,21.96
2023-09-08T12:18:20.095Z,22.00
2023-09-08T12:20:48.943Z,21.98
2023-09-08T12:23:23.293Z,22.07
2023-09-08T12:25:52.567Z,22.08
2023-09-08T12:28:21.998Z,22.15
2023-09-08T12:30:56.703Z,22.26
2023-09-08T12:33:24.347Z,22.13
2023-09-08T12:35:54.504Z,22.01
2023-09-08T12:38:22.136Z,21.95
2023-09-08T12:40:49.790Z,22.03
2023-09-08T12:43:22.845Z,22.16
2023-09-08T12:45:57.825Z,22.19
2023-09-08T12:48:25.883Z,22.09
2023-09-08T12:50:53.612Z,21.99
2023-09-08T12:53:21.970Z,21.96
2023-09-08T12:55:50.090Z,21.91
2023-09-08T12:58:18.278Z,22.05
2023-09-08T13:00:46.743Z,22.14
2023-09-08T13:03:14.433Z,22.26
2023-09-08T13:05:42.569Z,22.27
2023-09-08T13:08:10.753Z,22.21
2023-09-08T13:10:39.294Z,22.14
2023-09-08T13:13:07.020Z,22.17
2023-09-08T13:15:34.886Z,22.12
2023-09-08T13:18:02.793Z,22.08
2023-09-08T13:20:31.871Z,21.97
2023-09-08T13:22:59.641Z,21.86
2023-09-08T13:25:27.495Z,21.90
2023-09-08T13:27:55.790Z,21.97
2023-09-08T13:30:27.925Z,22.05
2023-09-08T13:32:57.437Z,22.16
2023-09-08T13:35:25.601Z,22.14
2023-09-08T13:37:53.247Z,22.01
2023-09-08T13:40:21.102Z,21.85
2023-09-08T13:42:49.385Z,21.79
2023-09-08T13:45:17.217Z,21.77
2023-09-08T13:47:45.652Z,21.75
2023-09-08T13:50:14.431Z,21.72
2023-09-08T13:52:43.665Z,21.71
2023-09-08T13:55:34.929Z,21.72
2023-09-08T13:58:01.811Z,21.70
2023-09-08T14:00:31.919Z,21.60
2023-09-08T14:03:05.676Z,21.63
2023-09-08T14:05:37.920Z,21.63
2023-09-08T14:08:16.414Z,21.67
2023-09-08T14:13:16.629Z,21.63
2023-09-08T14:15:44.776Z,21.71
2023-09-08T14:18:12.693Z,21.78
2023-09-08T14:20:42.045Z,21.76
2023-09-08T14:23:10.050Z,21.78
2023-09-08T14:25:37.982Z,21.73
2023-09-08T14:28:07.160Z,21.67
2023-09-08T14:30:37.197Z,21.69
2023-09-08T14:33:05.177Z,21.81
2023-09-08T14:35:33.804Z,21.88
2023-09-08T14:38:02.032Z,21.91
2023-09-08T14:40:29.682Z,21.92
2023-09-08T14:42:57.236Z,21.95
2023-09-08T14:45:27.905Z,21.94
2023-09-08T14:47:55.593Z,22.13
2023-09-08T14:50:23.449Z,22.13
2023-09-08T14:52:51.158Z,22.02
2023-09-08T14:55:19.946Z,22.04
2023-09-08T14:57:47.623Z,21.98
2023-09-08T15:00:15.901Z,21.84
2023-09-08T15:02:43.744Z,21.69
2023-09-08T15:05:11.511Z,21.49
2023-09-08T15:07:39.887Z,21.40
2023-09-08T15:10:07.655Z,21.37
2023-09-08T15:12:35.315Z,21.40
2023-09-08T15:15:03.694Z,21.47
2023-09-08T15:17:31.877Z,21.60
2023-09-08T15:20:01.076Z,21.64
2023-09-08T15:22:28.826Z,21.56
2023-09-08T15:24:56.504Z,21.44
2023-09-08T15:27:24.147Z,21.30
2023-09-08T15:29:51.709Z,21.16
2023-09-08T15:32:19.365Z,21.06
2023-09-08T15:34:51.246Z,21.00
2023-09-08T15:37:19.331Z,20.90
2023-09-08T15:39:47.711Z,20.77
2023-09-08T15:42:15.495Z,20.64
2023-09-08T15:44:43.311Z,20.47
2023-09-08T15:47:10.964Z,20.31
2023-09-08T15:49:38.658Z,20.08
2023-09-08T15:52:15.870Z,19.86
2023-09-08T15:54:44.638Z,19.61
2023-09-08T15:57:12.464Z,19.36
2023-09-08T15:59:41.194Z,19.16
2023-09-08T16:02:09.187Z,18.97
2023-09-08T16:04:37.177Z,18.80
2023-09-08T16:07:05.666Z,18.62
2023-09-08T16:09:33.336Z,18.47
2023-09-08T16:12:00.993Z,18.34
2023-09-08T16:14:28.667Z,18.20
2023-09-08T16:16:56.970Z,18.05
2023-09-08T16:19:24.905Z,17.89
2023-09-08T16:21:52.872Z,17.74
2023-09-08T16:24:20.535Z,17.62
2023-09-08T16:26:48.498Z,17.54
2023-09-08T16:29:16.272Z,17.45
2023-09-08T16:31:43.949Z,17.36
2023-09-08T16:34:12.134Z,17.30
2023-09-08T16:36:40.271Z,17.24
2023-09-08T16:39:07.948Z,17.19
2023-09-08T16:41:35.585Z,17.14
2023-09-08T16:44:03.246Z,17.05
2023-09-08T16:46:30.904Z,16.98
2023-09-08T16:48:58.564Z,16.92
2023-09-08T16:51:26.127Z,16.90
2023-09-08T16:53:53.742Z,16.87
2023-09-08T16:56:21.855Z,16.81
2023-09-08T16:58:51.169Z,16.71
2023-09-08T17:01:19.354Z,16.64
2023-09-08T17:03:47.163Z,16.57
2023-09-08T17:06:14.960Z,16.49
2023-09-08T17:08:42.627Z,16.40
2023-09-08T17:11:11.820Z,16.29
2023-09-08T17:13:39.783Z,16.18
2023-09-08T17:16:07.699Z,16.08
2023-09-08T17:18:36.090Z,15.98
2023-09-08T17:21:04.622Z,15.90
2023-09-08T17:23:32.372Z,15.78
2023-09-08T17:26:02.299Z,15.65
2023-09-08T17:28:30.052Z,15.50
2023-09-08T17:30:58.224Z,15.37
2023-09-08T17:33:25.886Z,15.23
2023-09-08T17:35:53.711Z,15.11
2023-09-08T17:38:21.280Z,14.99
2023-09-08T17:40:48.770Z,14.89
2023-09-08T17:43:16.771Z,14.82
2023-09-08T17:45:45.323Z,14.73
2023-09-08T17:48:13.439Z,14.63
2023-09-08T17:50:40.988Z,14.60
2023-09-08T17:53:09.365Z,14.59
2023-09-08T17:55:37.532Z,14.56
2023-09-08T17:58:05.572Z,14.48
2023-09-08T18:03:47.582Z,14.33
2023-09-08T18:06:16.076Z,14.24
2023-09-08T18:08:44.893Z,14.15
2023-09-08T18:11:12.938Z,14.04
2023-09-08T18:13:40.775Z,13.94
2023-09-08T18:16:09.440Z,13.83
2023-09-08T18:18:37.238Z,13.73
2023-09-08T18:21:04.806Z,13.65
2023-09-08T18:23:32.573Z,13.57
2023-09-08T18:26:00.384Z,13.49
2023-09-08T18:28:28.646Z,13.41
2023-09-08T18:30:56.576Z,13.33
2023-09-08T18:33:24.297Z,13.26
2023-09-08T18:35:52.401Z,13.18
2023-09-08T18:38:20.227Z,13.11
2023-09-08T18:40:48.655Z,13.05
2023-09-08T18:43:16.411Z,12.99
2023-09-08T18:45:44.229Z,12.91
2023-09-08T18:48:12.332Z,12.86
2023-09-08T18:50:41.344Z,12.83
2023-09-08T18:53:10.533Z,12.80
2023-09-08T18:55:38.150Z,12.78
2023-09-08T18:58:06.779Z,12.75
2023-09-08T19:00:34.670Z,12.70
2023-09-08T19:03:03.577Z,12.63
2023-09-08T19:05:31.708Z,12.58
2023-09-08T19:07:59.672Z,12.50
2023-09-08T19:10:27.440Z,12.45
2023-09-08T19:12:55.012Z,12.42
2023-09-08T19:15:22.655Z,12.39
2023-09-08T19:17:52.418Z,12.37
2023-09-08T19:20:20.230Z,12.41
2023-09-08T19:22:47.999Z,12.45
2023-09-08T19:25:15.687Z,12.48
2023-09-08T19:27:43.470Z,12.51
2023-09-08T19:30:12.152Z,12.53
2023-09-08T19:35:12.728Z,12.61
2023-09-08T19:37:40.733Z,12.61
2023-09-08T19:40:08.943Z,12.64
2023-09-08T19:42:36.963Z,12.68
2023-09-08T19:45:05.457Z,12.68
2023-09-08T19:47:33.316Z,12.69
2023-09-08T19:50:01.409Z,12.68
2023-09-08T19:52:29.041Z,12.66
2023-09-08T19:54:56.698Z,12.63
2023-09-08T19:57:24.464Z,12.60
2023-09-08T19:59:52.023Z,12.57
2023-09-08T20:02:19.912Z,12.54
2023-09-08T20:04:47.698Z,12.49
2023-09-08T20:07:15.725Z,12.44
2023-09-08T20:09:43.382Z,12.40
2023-09-08T20:12:11.045Z,12.34
2023-09-08T20:14:38.630Z,12.29
2023-09-08T20:17:06.361Z,12.21
2023-09-08T20:19:34.174Z,12.10
2023-09-08T20:22:02.717Z,12.00
2023-09-08T20:24:31.096Z,11.91
2023-09-08T20:26:58.765Z,11.83
2023-09-08T20:29:29.598Z,11.74
2023-09-08T20:31:58.749Z,11.67
2023-09-08T20:34:26.857Z,11.60
2023-09-08T20:36:56.087Z,11.56
2023-09-08T20:39:24.007Z,11.54
2023-09-08T20:41:51.921Z,11.52
2023-09-08T20:44:19.652Z,11.50
2023-09-08T20:46:47.854Z,11.51
2023-09-08T20:49:15.592Z,11.50
2023-09-08T20:51:43.352Z,11.48
2023-09-08T20:54:11.037Z,11.47
2023-09-08T20:56:39.864Z,11.47
2023-09-08T20:59:07.466Z,11.47
2023-09-08T21:01:35.458Z,11.47
2023-09-08T21:04:03.101Z,11.49
2023-09-08T21:06:31.162Z,11.47
2023-09-08T21:08:58.833Z,11.47
2023-09-08T21:11:26.894Z,11.47
2023-09-08T21:13:54.560Z,11.46
2023-09-08T21:16:22.883Z,11.48
2023-09-08T21:18:50.593Z,11.50
2023-09-08T21:21:18.251Z,11.49
2023-09-08T21:23:45.810Z,11.47
2023-09-08T21:26:14.059Z,11.44
2023-09-08T21:28:41.750Z,11.41
2023-09-08T21:31:10.108Z,11.41
2023-09-08T21:33:38.896Z,11.41
2023-09-08T21:36:07.903Z,11.40
2023-09-08T21:38:35.985Z,11.36
2023-09-08T21:41:08.658Z,11.33
2023-09-08T21:43:37.412Z,11.31
2023-09-08T21:46:06.058Z,11.31
2023-09-08T21:48:34.314Z,11.30
2023-09-08T21:51:02.362Z,11.29
2023-09-08T21:53:30.136Z,11.29
2023-09-08T21:55:57.699Z,11.29
2023-09-08T21:58:25.355Z,11.28
2023-09-08T22:00:53.149Z,11.26
2023-09-08T22:03:21.373Z,11.23
2023-09-08T22:05:49.900Z,11.18
2023-09-08T22:08:17.536Z,11.10
2023-09-08T22:10:45.812Z,11.02
2023-09-08T22:13:13.474Z,10.96
2023-09-08T22:15:42.026Z,10.91
2023-09-08T22:18:10.372Z,10.89
2023-09-08T22:20:38.508Z,10.85
2023-09-08T22:23:06.173Z,10.84
2023-09-08T22:25:35.026Z,10.82
2023-09-08T22:28:02.719Z,10.80
2023-09-08T22:30:30.997Z,10.78
2023-09-08T22:32:58.734Z,10.77
2023-09-08T22:35:26.515Z,10.77
2023-09-08T22:37:54.179Z,10.79
2023-09-08T22:40:22.453Z,10.82
2023-09-08T22:42:52.003Z,10.82
2023-09-08T22:45:19.915Z,10.79
2023-09-08T22:47:47.761Z,10.77
2023-09-08T22:50:15.454Z,10.75
2023-09-08T22:52:43.115Z,10.73
2023-09-08T22:55:24.290Z,10.70
2023-09-08T22:57:54.717Z,10.68
2023-09-08T23:00:23.678Z,10.68
2023-09-08T23:02:51.802Z,10.72
2023-09-08T23:05:19.658Z,10.77
2023-09-08T23:07:47.763Z,10.82
2023-09-08T23:10:15.486Z,10.84
2023-09-08T23:12:43.164Z,10.87
2023-09-08T23:15:11.411Z,10.89
2023-09-08T23:17:39.650Z,10.93
2023-09-08T23:20:26.614Z,11.01
2023-09-08T23:22:54.476Z,11.13
2023-09-08T23:25:22.237Z,11.29
2023-09-08T23:27:49.795Z,11.42
2023-09-08T23:30:17.458Z,11.56
2023-09-08T23:32:46.367Z,11.69
2023-09-08T23:35:14.850Z,11.81
2023-09-08T23:37:43.317Z,11.87
2023-09-08T23:40:13.009Z,11.91
2023-09-08T23:42:40.685Z,11.99
2023-09-08T23:45:08.845Z,11.99
2023-09-08T23:47:36.536Z,11.99
2023-09-08T23:50:04.726Z,11.99
2023-09-08T23:52:32.380Z,11.99
2023-09-08T23:55:00.012Z,11.94
2023-09-08T23:57:27.989Z,11.87
2023-09-08T23:59:55.881Z,11.75
